Repülésmeteorológia

  • METAR LHSM 210945Z AUTO 36017KT 330V030 CAVOK 22/15 Q1024 NOSIG=
  • METAR LHSM 210915Z AUTO 01022KT 9000 NCD 22/14 Q1023 NOSIG=
  • METAR LHSM 210845Z AUTO 01020G33KT 330V030 9000 NCD 22/14 Q1023
  • METAR LHSM 210815Z AUTO 01021KT 9999 //////CB 21/14 Q1023 NOSIG=
  • METAR LHSM 210745Z AUTO 36020G34KT 340V040 8000 //////CB 21/14 Q1023

  • TAF LHSM 210815Z 2109/2118 36020G35KT CAVOK
  • TAF LHSM 210515Z 2106/2115 36020G35KT CAVOK=
  • TAF LHSM 201115Z 2012/2021 VRB02KT CAVOK=
  • TAF LHSM 200815Z 2009/2018 36006KT CAVOK TEMPO 2011/2015 08006KT=
  • TAF LHSM 200515Z 2006/2015 VRB03KT CAVOK